Time;durP1;ratioP1;P1;durP2;ratioP2;P2;SDS_P1;SDS_P2;PMS_P1;PMS_P2;Temp;Humidity;BMP_temperature;BMP_pressure;BME280_temperature;BME280_humidity;BME280_pressure;Samples;Min_cycle;Max_cycle;Signal;HPM_P1;HPM_P2
2024/02/07 00:00:32;;;;;;;6.68;3.25;;;;;;;4.07;100.00;96741.44;4990403;28;20077;-77
2024/02/07 00:02:57;;;;;;;10.98;2.85;;;;;;;4.09;100.00;96745.44;4989919;28;20104;-75
2024/02/07 00:05:23;;;;;;;4.80;2.70;;;;;;;4.05;100.00;96738.25;4984231;28;20571;-75
2024/02/07 00:07:48;;;;;;;5.65;2.78;;;;;;;3.97;100.00;96746.09;4978989;28;20464;-75
2024/02/07 00:10:14;;;;;;;4.70;3.00;;;;;;;3.97;100.00;96742.59;4979360;28;20406;-76
2024/02/07 00:12:39;;;;;;;4.80;2.85;;;;;;;3.95;100.00;96737.47;4987096;28;20132;-76
2024/02/07 00:15:05;;;;;;;5.68;2.65;;;;;;;3.94;100.00;96740.50;4984321;28;20052;-75
2024/02/07 00:17:31;;;;;;;6.68;2.90;;;;;;;3.98;100.00;96734.13;4989253;28;20745;-77
2024/02/07 00:19:56;;;;;;;7.93;3.10;;;;;;;3.98;100.00;96741.44;4982602;28;20050;-75
2024/02/07 00:22:22;;;;;;;5.38;3.20;;;;;;;3.96;100.00;96736.38;5004967;28;20046;-76
2024/02/07 00:24:47;;;;;;;5.35;3.00;;;;;;;4.06;100.00;96735.22;4991039;28;20373;-77
2024/02/07 00:27:12;;;;;;;8.43;2.85;;;;;;;4.02;100.00;96732.38;4988437;28;20393;-77
2024/02/07 00:29:38;;;;;;;6.70;3.38;;;;;;;4.11;100.00;96737.75;4985568;28;20046;-76
2024/02/07 00:32:03;;;;;;;7.43;3.28;;;;;;;4.08;100.00;96732.97;4980104;28;20577;-74
2024/02/07 00:34:29;;;;;;;6.55;2.97;;;;;;;4.04;100.00;96715.78;5007435;28;20045;-75
2024/02/07 00:36:55;;;;;;;7.15;3.28;;;;;;;3.96;100.00;96725.53;4982155;28;20122;-75
2024/02/07 00:39:20;;;;;;;5.75;3.08;;;;;;;3.97;100.00;96713.56;4985823;28;20546;-77
2024/02/07 00:41:45;;;;;;;5.50;3.00;;;;;;;3.92;100.00;96712.94;4996354;28;20140;-77
2024/02/07 00:44:11;;;;;;;4.88;3.10;;;;;;;3.95;100.00;96710.38;4990238;28;20056;-76
2024/02/07 00:46:38;;;;;;;4.88;3.10;;;;;;;3.87;100.00;96707.69;4992522;28;20050;-78
2024/02/07 00:49:03;;;;;;;6.10;3.10;;;;;;;3.88;100.00;96706.59;4975779;28;20587;-75
2024/02/07 00:51:32;;;;;;;6.65;3.33;;;;;;;3.94;100.00;96694.44;4986999;28;20094;-75
2024/02/07 00:53:57;;;;;;;4.05;3.10;;;;;;;3.93;100.00;96690.16;4989604;28;20041;-76
2024/02/07 00:56:23;;;;;;;6.40;3.78;;;;;;;3.91;100.00;96690.47;4986162;28;20052;-76
2024/02/07 00:58:48;;;;;;;7.10;4.10;;;;;;;3.93;100.00;96701.78;5006745;28;20061;-76
2024/02/07 01:01:13;;;;;;;6.70;4.07;;;;;;;3.83;100.00;96694.81;4992933;28;20042;-76
2024/02/07 01:03:39;;;;;;;9.45;6.05;;;;;;;3.72;100.00;96698.16;4974609;28;20046;-75
2024/02/07 01:06:05;;;;;;;34.72;19.33;;;;;;;3.69;100.00;96698.81;4977909;28;20050;-75
2024/02/07 01:08:30;;;;;;;8.13;4.25;;;;;;;3.69;100.00;96691.50;4989602;28;20469;-74
2024/02/07 01:10:56;;;;;;;8.00;4.18;;;;;;;3.86;100.00;96698.00;5006006;28;20046;-77
2024/02/07 01:13:21;;;;;;;6.65;4.22;;;;;;;3.98;100.00;96690.78;5004233;28;20755;-76
2024/02/07 01:15:47;;;;;;;8.02;4.10;;;;;;;4.10;100.00;96687.38;4991598;28;20119;-76
2024/02/07 01:18:12;;;;;;;7.32;4.15;;;;;;;4.13;100.00;96681.31;5012072;28;20072;-76
2024/02/07 01:20:37;;;;;;;6.60;4.78;;;;;;;4.27;100.00;96678.38;5019329;28;20056;-75
2024/02/07 01:23:03;;;;;;;9.82;4.75;;;;;;;4.33;100.00;96673.56;5011705;28;20065;-75
2024/02/07 01:25:29;;;;;;;9.02;5.03;;;;;;;4.36;100.00;96678.34;5021073;28;20053;-75
2024/02/07 01:27:55;;;;;;;5.80;4.13;;;;;;;4.35;100.00;96682.16;5014341;28;20041;-75
2024/02/07 01:30:20;;;;;;;7.30;4.63;;;;;;;4.31;100.00;96681.25;5007437;28;20329;-76
2024/02/07 01:32:46;;;;;;;5.97;4.35;;;;;;;4.37;100.00;96666.38;5002162;28;20404;-74
2024/02/07 01:35:13;;;;;;;7.10;5.00;;;;;;;4.32;100.00;96667.38;5001276;28;20120;-75
2024/02/07 01:37:39;;;;;;;5.85;4.38;;;;;;;4.34;100.00;96667.81;5001029;28;20076;-76
2024/02/07 01:40:10;;;;;;;6.25;4.18;;;;;;;4.34;100.00;96656.16;5002608;28;20497;-78
2024/02/07 01:42:36;;;;;;;8.15;4.50;;;;;;;4.30;100.00;96649.81;5009975;28;20046;-76
2024/02/07 01:45:22;;;;;;;6.93;4.40;;;;;;;4.27;100.00;96645.03;5001178;28;20141;-76
2024/02/07 01:47:48;;;;;;;8.80;3.67;;;;;;;4.24;100.00;96641.06;5010168;28;20053;-76
2024/02/07 01:50:14;;;;;;;8.05;4.40;;;;;;;4.16;100.00;96637.28;5003091;28;20044;-75
2024/02/07 01:52:41;;;;;;;6.10;4.13;;;;;;;4.16;100.00;96640.00;5015258;28;20534;-76
2024/02/07 01:55:07;;;;;;;6.55;3.85;;;;;;;4.15;100.00;96632.19;5003408;28;20046;-77
2024/02/07 01:57:33;;;;;;;7.22;4.43;;;;;;;4.12;100.00;96632.84;5009066;28;20088;-74
2024/02/07 01:59:59;;;;;;;6.90;4.10;;;;;;;4.08;100.00;96616.44;5012312;28;20127;-75
2024/02/07 02:02:25;;;;;;;6.88;4.07;;;;;;;4.07;100.00;96624.88;5005590;28;20049;-74
2024/02/07 02:04:51;;;;;;;9.43;4.60;;;;;;;4.00;100.00;96618.06;5013690;28;20152;-74
2024/02/07 02:07:18;;;;;;;6.70;4.38;;;;;;;3.94;100.00;96622.09;5007820;28;20038;-77
2024/02/07 02:09:44;;;;;;;8.95;4.90;;;;;;;3.97;100.00;96623.34;5023723;28;20057;-76
2024/02/07 02:12:11;;;;;;;7.53;4.55;;;;;;;3.90;100.00;96623.84;5001836;28;20046;-77
2024/02/07 02:14:37;;;;;;;7.07;4.85;;;;;;;3.83;100.00;96616.25;5008987;28;20042;-78
2024/02/07 02:17:02;;;;;;;6.93;4.68;;;;;;;3.82;100.00;96625.47;5004495;28;20038;-76
2024/02/07 02:19:28;;;;;;;7.82;4.38;;;;;;;3.78;100.00;96616.41;5021397;28;20045;-75
2024/02/07 02:22:21;;;;;;;7.57;4.55;;;;;;;3.80;100.00;96621.50;5008015;28;20046;-76
2024/02/07 02:25:06;;;;;;;8.10;4.22;;;;;;;3.77;100.00;96622.16;4979273;28;20056;-76
2024/02/07 02:27:38;;;;;;;7.63;4.55;;;;;;;3.72;100.00;96622.31;5004043;28;20054;-75
2024/02/07 02:30:21;;;;;;;8.10;4.28;;;;;;;3.67;100.00;96617.06;5017304;28;20045;-79
2024/02/07 02:32:49;;;;;;;7.53;4.65;;;;;;;3.78;100.00;96612.88;5013945;28;20508;-77
2024/02/07 02:35:18;;;;;;;7.22;4.68;;;;;;;3.69;100.00;96615.66;5010644;28;20570;-78
2024/02/07 02:37:45;;;;;;;9.70;4.85;;;;;;;3.66;100.00;96607.38;5005602;28;20433;-76
2024/02/07 02:40:11;;;;;;;8.38;3.80;;;;;;;3.94;100.00;96610.44;5006979;28;20081;-75
2024/02/07 02:42:36;;;;;;;7.78;4.32;;;;;;;3.82;100.00;96606.50;5011140;28;20088;-75
2024/02/07 02:45:02;;;;;;;6.93;4.30;;;;;;;3.73;100.00;96599.53;5021347;28;20053;-76
2024/02/07 02:47:28;;;;;;;7.50;4.25;;;;;;;3.77;100.00;96587.72;5022446;28;20050;-76
2024/02/07 02:49:54;;;;;;;7.45;4.68;;;;;;;3.71;100.00;96586.31;5012881;28;20053;-75
2024/02/07 02:52:22;;;;;;;6.93;4.05;;;;;;;3.79;100.00;96573.84;5011757;28;20049;-75
2024/02/07 02:54:49;;;;;;;9.85;4.13;;;;;;;3.82;100.00;96570.50;5021615;28;20052;-75
2024/02/07 02:57:16;;;;;;;9.45;4.57;;;;;;;3.84;100.00;96557.41;5024143;28;20100;-74
2024/02/07 02:59:42;;;;;;;8.32;4.60;;;;;;;3.82;100.00;96557.75;5014824;28;20100;-75
2024/02/07 03:02:12;;;;;;;7.10;4.13;;;;;;;3.84;100.00;96560.13;5021109;28;20103;-75
2024/02/07 03:04:41;;;;;;;11.02;4.88;;;;;;;3.88;100.00;96562.97;5017110;28;20066;-75
2024/02/07 03:07:36;;;;;;;9.10;4.63;;;;;;;3.74;100.00;96569.41;5000559;28;20128;-77
2024/02/07 03:10:00;;;;;;;6.53;4.57;;;;;;;3.72;100.00;96557.31;5016908;28;20152;-73
2024/02/07 03:12:26;;;;;;;9.75;4.88;;;;;;;3.73;100.00;96559.69;5013118;28;20423;-75
2024/02/07 03:14:51;;;;;;;11.25;5.15;;;;;;;3.74;100.00;96558.56;5010952;28;20041;-76
2024/02/07 03:17:17;;;;;;;8.05;5.20;;;;;;;3.77;100.00;96547.09;5008507;28;20062;-75
2024/02/07 03:19:42;;;;;;;9.75;6.13;;;;;;;3.80;100.00;96551.84;5041074;28;20068;-77
2024/02/07 03:22:07;;;;;;;8.73;5.28;;;;;;;3.87;100.00;96556.78;5017813;28;20045;-75
2024/02/07 03:24:33;;;;;;;10.75;5.47;;;;;;;3.76;100.00;96552.81;5020381;28;20046;-74
2024/02/07 03:26:58;;;;;;;9.75;4.90;;;;;;;3.83;100.00;96551.22;5020657;28;20049;-74
2024/02/07 03:29:25;;;;;;;8.43;5.22;;;;;;;3.81;100.00;96549.94;4997385;28;20038;-75
2024/02/07 03:31:51;;;;;;;7.90;4.97;;;;;;;3.79;100.00;96547.53;5011383;28;20052;-75
2024/02/07 03:34:16;;;;;;;9.88;5.32;;;;;;;3.85;100.00;96539.25;5033233;28;20030;-74
2024/02/07 03:36:42;;;;;;;9.15;5.55;;;;;;;3.77;100.00;96524.63;5035872;28;20049;-74
2024/02/07 03:39:09;;;;;;;9.10;5.60;;;;;;;3.77;100.00;96530.81;5018974;28;20030;-74
2024/02/07 03:41:35;;;;;;;11.98;5.75;;;;;;;3.68;100.00;96530.06;5017922;28;20140;-76
2024/02/07 03:44:01;;;;;;;9.90;5.70;;;;;;;3.59;100.00;96524.69;5021934;28;20140;-74
2024/02/07 03:46:27;;;;;;;11.30;5.82;;;;;;;3.54;100.00;96518.66;5018743;28;20391;-74
2024/02/07 03:48:53;;;;;;;10.32;5.97;;;;;;;3.59;100.00;96519.28;5013268;28;20046;-75
2024/02/07 03:51:26;;;;;;;10.85;6.03;;;;;;;3.56;100.00;96514.50;5018067;28;20030;-75
2024/02/07 03:53:53;;;;;;;11.82;5.88;;;;;;;3.39;100.00;96515.38;5013598;28;20042;-74
2024/02/07 03:56:18;;;;;;;9.15;5.53;;;;;;;3.35;100.00;96509.03;5016386;28;20033;-75
2024/02/07 03:58:44;;;;;;;14.00;6.43;;;;;;;3.29;100.00;96491.38;5021747;28;20096;-73
2024/02/07 04:01:16;;;;;;;10.40;5.82;;;;;;;3.35;100.00;96497.41;5015713;28;20034;-74
2024/02/07 04:03:42;;;;;;;8.55;5.78;;;;;;;3.46;100.00;96498.66;5020910;28;20041;-74
2024/02/07 04:06:07;;;;;;;10.40;5.70;;;;;;;3.47;100.00;96494.78;4997676;28;20049;-73
2024/02/07 04:08:34;;;;;;;13.07;6.65;;;;;;;3.52;100.00;96500.03;5013905;28;20069;-75
2024/02/07 04:11:01;;;;;;;10.63;6.35;;;;;;;3.45;100.00;96503.25;5022021;28;20076;-74
2024/02/07 05:16:12;;;;;;;11.50;6.38;;;;;;;2.85;100.00;96491.50;5007384;28;20055;-76
2024/02/07 05:18:37;;;;;;;14.48;7.22;;;;;;;2.94;100.00;96496.91;5020847;28;20121;-77
2024/02/07 05:21:03;;;;;;;12.63;6.72;;;;;;;3.02;100.00;96479.81;5012844;28;20040;-76
2024/02/07 05:23:28;;;;;;;11.77;7.13;;;;;;;3.08;100.00;96476.94;5005936;28;20569;-75
2024/02/07 05:25:56;;;;;;;10.77;6.72;;;;;;;3.14;100.00;96481.09;5020391;28;20108;-75
2024/02/07 05:28:22;;;;;;;9.95;6.28;;;;;;;3.12;100.00;96480.63;5015000;28;20044;-75
2024/02/07 05:30:48;;;;;;;13.73;7.07;;;;;;;3.37;100.00;96477.00;5022212;28;20046;-75
2024/02/07 05:33:13;;;;;;;9.98;5.78;;;;;;;3.70;100.00;96479.06;5014269;28;20036;-74
2024/02/07 05:35:38;;;;;;;10.52;5.75;;;;;;;3.55;100.00;96480.44;5020128;28;20037;-73
2024/02/07 05:38:04;;;;;;;12.27;6.45;;;;;;;3.65;100.00;96481.97;5007914;28;20575;-74
2024/02/07 05:40:30;;;;;;;13.45;6.30;;;;;;;3.68;100.00;96480.53;5020007;28;20076;-74
2024/02/07 05:42:55;;;;;;;10.95;6.32;;;;;;;3.64;100.00;96480.41;5012220;28;20052;-75
2024/02/07 05:45:21;;;;;;;11.38;6.20;;;;;;;3.65;100.00;96487.38;5010269;28;20049;-74
2024/02/07 05:47:46;;;;;;;12.77;6.05;;;;;;;3.71;100.00;96491.50;5025088;28;20140;-75
2024/02/07 05:50:12;;;;;;;14.95;6.82;;;;;;;3.91;100.00;96491.88;5012085;28;20037;-76
2024/02/07 05:52:39;;;;;;;13.73;5.75;;;;;;;3.96;100.00;96483.53;5019737;28;20041;-75
2024/02/07 05:55:06;;;;;;;17.02;5.65;;;;;;;4.05;100.00;96478.06;5013774;28;20033;-77
2024/02/07 05:57:33;;;;;;;11.48;5.82;;;;;;;4.07;100.00;96473.94;5005612;28;20046;-77
2024/02/07 05:59:59;;;;;;;10.98;6.20;;;;;;;4.21;100.00;96457.38;5007493;28;20037;-76
2024/02/07 06:02:24;;;;;;;11.27;6.38;;;;;;;4.28;100.00;96456.84;5003551;28;20046;-77
2024/02/07 06:04:54;;;;;;;12.73;5.80;;;;;;;4.28;100.00;96465.78;5016181;28;20181;-76
2024/02/07 06:07:19;;;;;;;11.00;6.45;;;;;;;4.12;100.00;96454.72;5000172;28;20061;-75
2024/02/07 06:09:45;;;;;;;9.52;5.38;;;;;;;4.14;100.00;96460.63;5018527;28;20084;-75
2024/02/07 06:12:12;;;;;;;11.13;5.60;;;;;;;4.19;100.00;96462.34;4998646;28;20041;-76
2024/02/07 06:14:38;;;;;;;14.90;5.43;;;;;;;4.11;100.00;96464.00;5031239;22;20054;-69
2024/02/07 06:17:03;;;;;;;12.40;6.32;;;;;;;4.06;100.00;96466.91;5035729;28;20111;-68
2024/02/07 06:19:28;;;;;;;14.30;6.32;;;;;;;4.02;100.00;96463.28;5038543;28;20037;-68
2024/02/07 06:21:54;;;;;;;12.52;5.85;;;;;;;4.06;100.00;96464.19;5031783;28;20049;-68
2024/02/07 06:24:19;;;;;;;15.77;5.63;;;;;;;4.14;100.00;96448.97;5022810;28;20157;-68
2024/02/07 06:26:45;;;;;;;14.45;5.55;;;;;;;4.25;100.00;96454.81;5018226;28;20080;-67
2024/02/07 06:29:10;;;;;;;12.95;5.68;;;;;;;4.16;100.00;96454.88;5014367;28;20041;-67
2024/02/07 06:31:35;;;;;;;14.30;5.93;;;;;;;4.12;100.00;96453.94;5031242;28;20052;-67
2024/02/07 06:34:03;;;;;;;10.73;5.65;;;;;;;4.17;100.00;96442.91;5023461;28;20111;-67
2024/02/07 06:36:29;;;;;;;12.63;6.38;;;;;;;4.15;100.00;96437.81;5035860;28;20046;-67
2024/02/07 06:38:54;;;;;;;12.23;6.03;;;;;;;4.16;100.00;96446.72;5004445;28;20053;-70
2024/02/07 06:41:19;;;;;;;16.63;6.20;;;;;;;4.19;100.00;96448.78;5020926;28;20416;-68
2024/02/07 06:43:45;;;;;;;13.60;6.28;;;;;;;4.14;100.00;96451.69;5043123;28;20149;-69
2024/02/07 06:46:10;;;;;;;12.63;6.32;;;;;;;4.15;100.00;96456.00;5042708;28;20048;-67
2024/02/07 06:48:35;;;;;;;11.85;6.22;;;;;;;4.15;100.00;96448.66;5022631;28;20046;-67
2024/02/07 06:51:01;;;;;;;7.32;4.85;;;;;;;4.24;100.00;96448.59;5026860;28;20118;-69
2024/02/07 06:53:26;;;;;;;16.30;6.25;;;;;;;4.34;100.00;96444.66;5024991;28;20053;-68
2024/02/07 06:55:53;;;;;;;11.93;4.97;;;;;;;4.39;100.00;96447.19;5026591;28;20053;-67
2024/02/07 06:58:18;;;;;;;13.40;5.95;;;;;;;4.41;100.00;96439.50;5025213;28;20128;-67
2024/02/07 07:00:43;;;;;;;11.32;5.68;;;;;;;4.50;100.00;96439.44;5005402;28;20631;-67
2024/02/07 07:03:09;;;;;;;11.68;5.72;;;;;;;4.49;100.00;96446.78;5021922;28;20462;-69
2024/02/07 07:05:34;;;;;;;11.98;5.35;;;;;;;4.47;100.00;96432.75;5021912;28;20450;-67
2024/02/07 07:08:00;;;;;;;15.45;6.40;;;;;;;4.49;100.00;96443.28;5023696;28;20045;-68
2024/02/07 07:10:26;;;;;;;14.75;5.70;;;;;;;4.54;100.00;96448.50;5027447;28;20080;-67
2024/02/07 07:12:52;;;;;;;17.10;6.07;;;;;;;4.54;100.00;96443.88;5029320;28;20103;-67
2024/02/07 07:15:19;;;;;;;12.60;5.00;;;;;;;4.64;100.00;96442.66;5000589;28;20044;-67
2024/02/07 07:17:45;;;;;;;15.27;5.88;;;;;;;4.71;100.00;96445.63;5031245;28;20045;-68
2024/02/07 07:20:10;;;;;;;8.40;4.95;;;;;;;4.76;100.00;96437.25;5031860;28;20487;-67
2024/02/07 07:22:35;;;;;;;12.32;5.65;;;;;;;4.86;100.00;96443.38;5023774;28;20050;-68
2024/02/07 07:25:01;;;;;;;29.80;8.05;;;;;;;5.00;100.00;96437.66;5017166;28;20049;-68
2024/02/07 07:27:26;;;;;;;13.45;6.13;;;;;;;4.95;100.00;96444.09;5021189;28;20046;-69
2024/02/07 07:29:51;;;;;;;13.23;5.25;;;;;;;5.04;100.00;96439.38;5017238;28;20052;-68
2024/02/07 07:32:17;;;;;;;15.73;5.22;;;;;;;5.07;100.00;96433.25;5005516;28;20046;-67
2024/02/07 07:34:42;;;;;;;11.55;5.20;;;;;;;5.16;100.00;96430.44;5007747;28;20141;-67
2024/02/07 07:37:07;;;;;;;9.60;4.50;;;;;;;5.17;100.00;96437.47;5003404;28;20046;-68
2024/02/07 07:39:33;;;;;;;12.70;5.75;;;;;;;5.19;100.00;96435.22;5008473;28;20518;-68
2024/02/07 07:41:58;;;;;;;11.63;5.18;;;;;;;5.17;100.00;96434.75;5033216;28;20056;-67
2024/02/07 07:44:24;;;;;;;15.63;5.85;;;;;;;5.18;100.00;96433.59;5004014;28;20397;-67
2024/02/07 07:46:49;;;;;;;16.33;5.45;;;;;;;5.18;100.00;96422.75;5000481;28;20054;-67
2024/02/07 07:49:15;;;;;;;13.32;5.07;;;;;;;5.22;100.00;96431.81;5026764;28;20177;-67
2024/02/07 07:51:40;;;;;;;15.20;5.07;;;;;;;5.22;100.00;96429.09;5041158;28;20052;-67
2024/02/07 07:54:06;;;;;;;22.48;6.55;;;;;;;5.30;100.00;96430.13;5011131;28;20053;-68
2024/02/07 07:56:32;;;;;;;18.58;5.70;;;;;;;5.45;100.00;96423.22;5029820;28;20507;-67
2024/02/07 07:58:58;;;;;;;13.55;6.63;;;;;;;5.51;100.00;96419.13;5026310;28;20066;-67
2024/02/07 08:01:24;;;;;;;14.55;6.30;;;;;;;5.59;100.00;96426.38;5035138;28;20460;-68
2024/02/07 08:03:53;;;;;;;18.75;6.95;;;;;;;5.74;100.00;96422.16;5039870;28;20135;-68
2024/02/07 08:06:18;;;;;;;39.75;9.32;;;;;;;5.75;100.00;96421.06;5034896;28;20510;-68
2024/02/07 08:08:44;;;;;;;25.95;6.80;;;;;;;5.80;100.00;96415.38;5041727;28;20037;-69
2024/02/07 08:11:09;;;;;;;16.98;6.65;;;;;;;5.91;100.00;96421.94;5037679;28;20053;-69
2024/02/07 08:13:35;;;;;;;14.05;6.10;;;;;;;5.89;100.00;96424.19;5040872;28;20120;-70
2024/02/07 08:16:01;;;;;;;12.98;6.57;;;;;;;5.88;100.00;96413.66;5039844;28;20041;-69
2024/02/07 08:18:27;;;;;;;16.70;5.97;;;;;;;5.83;100.00;96425.56;5036331;28;20045;-70
2024/02/07 08:20:56;;;;;;;15.80;5.32;;;;;;;5.86;100.00;96435.75;5051479;28;20134;-69
2024/02/07 08:23:21;;;;;;;14.35;5.30;;;;;;;5.94;100.00;96426.69;5027173;28;20291;-68
2024/02/07 08:25:46;;;;;;;13.25;4.80;;;;;;;5.86;100.00;96422.16;5039260;28;20060;-68
2024/02/07 08:28:12;;;;;;;15.25;5.00;;;;;;;5.93;100.00;96430.53;5026188;28;20049;-68
2024/02/07 08:30:38;;;;;;;11.00;5.03;;;;;;;5.89;100.00;96426.13;5030345;28;20457;-69
2024/02/07 08:33:04;;;;;;;12.93;5.15;;;;;;;5.95;100.00;96430.19;5035286;28;20041;-67
2024/02/07 08:35:29;;;;;;;12.25;5.35;;;;;;;5.94;100.00;96423.16;5038825;28;20044;-68
2024/02/07 08:37:58;;;;;;;14.70;4.93;;;;;;;6.03;100.00;96429.31;5022273;28;20570;-67
2024/02/07 08:40:30;;;;;;;23.42;5.65;;;;;;;6.26;100.00;96436.94;5033636;28;20040;-69
2024/02/07 08:42:56;;;;;;;10.60;4.22;;;;;;;6.17;100.00;96439.00;5039532;28;20049;-70
2024/02/07 08:45:21;;;;;;;15.65;5.13;;;;;;;6.26;100.00;96432.28;5026996;28;20122;-69
2024/02/07 08:47:47;;;;;;;22.85;5.00;;;;;;;6.32;100.00;96430.91;5037128;28;20059;-69
2024/02/07 08:50:14;;;;;;;25.70;7.03;;;;;;;6.30;100.00;96427.75;5027623;28;20110;-68
2024/02/07 08:52:40;;;;;;;14.63;5.90;;;;;;;6.25;100.00;96427.22;5033104;28;20482;-68
2024/02/07 08:55:09;;;;;;;12.85;4.88;;;;;;;6.28;100.00;96416.44;5025343;28;20084;-67
2024/02/07 08:57:39;;;;;;;12.85;5.47;;;;;;;6.33;100.00;96420.81;5039182;28;20052;-68
2024/02/07 09:00:07;;;;;;;14.77;6.30;;;;;;;6.55;100.00;96421.41;5034661;28;20045;-70
2024/02/07 09:02:32;;;;;;;9.50;5.10;;;;;;;6.66;100.00;96419.78;5039471;28;20099;-69
2024/02/07 09:05:04;;;;;;;11.65;5.18;;;;;;;6.82;100.00;96409.69;5037987;28;20056;-69
2024/02/07 09:07:29;;;;;;;12.35;4.70;;;;;;;6.95;100.00;96406.91;5040218;28;20079;-69
2024/02/07 09:09:55;;;;;;;28.73;6.78;;;;;;;6.89;100.00;96407.16;5032298;28;20079;-70
2024/02/07 09:12:20;;;;;;;13.55;5.03;;;;;;;6.96;100.00;96405.78;5034514;28;20053;-69
2024/02/07 09:14:45;;;;;;;18.45;5.30;;;;;;;7.03;100.00;96401.31;5039090;28;20082;-69
2024/02/07 09:17:11;;;;;;;11.00;4.70;;;;;;;6.92;100.00;96416.56;5033539;28;20131;-69
2024/02/07 09:19:36;;;;;;;16.85;5.43;;;;;;;7.00;100.00;96403.94;5039493;28;20076;-69
2024/02/07 09:22:02;;;;;;;17.35;4.95;;;;;;;7.16;100.00;96403.94;5053892;28;20117;-67
2024/02/07 09:24:27;;;;;;;11.50;4.45;;;;;;;7.42;100.00;96409.66;5053127;28;20045;-69
2024/02/07 09:26:53;;;;;;;16.63;4.57;;;;;;;7.65;100.00;96409.81;5038659;28;20045;-69
2024/02/07 09:29:19;;;;;;;13.02;4.13;;;;;;;7.35;100.00;96405.97;5033842;28;20041;-69
2024/02/07 09:31:45;;;;;;;17.40;4.63;;;;;;;7.20;100.00;96402.09;5039054;28;20049;-69
2024/02/07 09:34:11;;;;;;;9.90;4.43;;;;;;;7.08;100.00;96397.53;5043836;28;20108;-69
2024/02/07 09:36:38;;;;;;;25.52;9.77;;;;;;;7.14;100.00;96387.16;5040443;28;20083;-69
2024/02/07 09:39:04;;;;;;;38.72;14.95;;;;;;;7.00;100.00;96379.44;5033226;28;20037;-69
2024/02/07 09:41:32;;;;;;;26.58;11.23;;;;;;;6.93;100.00;96384.69;5038592;28;20041;-68
2024/02/07 09:44:02;;;;;;;24.88;10.55;;;;;;;7.05;100.00;96379.94;5036759;28;20059;-69
2024/02/07 09:46:35;;;;;;;16.02;6.88;;;;;;;7.04;100.00;96378.38;5035525;28;20056;-69
2024/02/07 09:49:02;;;;;;;11.25;5.25;;;;;;;7.05;100.00;96379.16;5038910;28;20037;-68
2024/02/07 09:51:28;;;;;;;15.30;5.25;;;;;;;7.04;100.00;96369.41;5035578;28;20063;-68
2024/02/07 09:53:54;;;;;;;11.73;5.47;;;;;;;7.23;100.00;96374.94;5039384;28;20049;-68
2024/02/07 09:56:21;;;;;;;13.68;4.97;;;;;;;7.54;100.00;96370.59;5033069;28;20048;-69
2024/02/07 09:58:46;;;;;;;17.58;5.20;;;;;;;7.53;100.00;96368.25;5039229;28;20052;-69
2024/02/07 10:01:13;;;;;;;13.93;4.80;;;;;;;7.57;100.00;96367.16;5030335;28;20049;-68
2024/02/07 10:03:42;;;;;;;16.65;5.20;;;;;;;7.71;100.00;96366.69;5028439;28;20068;-68
2024/02/07 10:06:09;;;;;;;12.93;4.45;;;;;;;7.87;100.00;96365.84;5036496;28;20055;-68
2024/02/07 10:08:36;;;;;;;8.65;4.40;;;;;;;7.92;100.00;96366.34;5039017;28;20102;-68
2024/02/07 10:11:02;;;;;;;8.30;3.90;;;;;;;7.89;100.00;96361.63;5037499;28;20052;-69
2024/02/07 10:13:28;;;;;;;10.85;4.05;;;;;;;7.84;100.00;96356.47;5041682;28;20079;-67
2024/02/07 10:15:54;;;;;;;14.15;4.47;;;;;;;7.75;100.00;96350.41;5041968;28;20068;-68
2024/02/07 10:18:19;;;;;;;9.00;3.78;;;;;;;7.77;100.00;96350.84;5037012;28;20045;-68
2024/02/07 10:20:55;;;;;;;11.63;4.13;;;;;;;8.00;100.00;96346.28;5042254;28;20044;-69
2024/02/07 10:23:21;;;;;;;14.48;3.80;;;;;;;8.18;100.00;96335.72;5034156;28;20045;-69
2024/02/07 10:25:54;;;;;;;7.03;3.47;;;;;;;8.31;100.00;96328.16;5042536;28;20457;-69
2024/02/07 10:28:20;;;;;;;6.82;3.38;;;;;;;8.34;100.00;96327.47;5036291;28;20076;-69
2024/02/07 10:31:00;;;;;;;10.30;3.25;;;;;;;8.33;100.00;96327.81;5043852;28;20110;-69
2024/02/07 10:33:48;;;;;;;9.65;4.07;;;;;;;8.46;100.00;96309.38;5038108;28;20466;-68
2024/02/07 10:36:15;;;;;;;39.30;5.97;;;;;;;9.14;100.00;96307.78;5036289;28;20519;-68
2024/02/07 10:38:40;;;;;;;33.33;5.25;;;;;;;9.82;96.94;96313.44;5042800;28;20049;-68
2024/02/07 10:41:06;;;;;;;10.45;3.05;;;;;;;9.40;100.00;96295.28;5036705;28;20039;-68
2024/02/07 10:43:38;;;;;;;8.35;2.95;;;;;;;9.43;99.89;96297.28;5042773;28;20124;-69
2024/02/07 10:46:10;;;;;;;18.60;4.13;;;;;;;9.55;98.92;96297.06;5036943;28;20499;-69
2024/02/07 10:48:36;;;;;;;9.48;3.40;;;;;;;9.72;96.60;96295.72;5047174;28;20048;-68
2024/02/07 10:51:02;;;;;;;11.43;3.08;;;;;;;10.02;95.28;96286.72;5043618;28;20550;-68
2024/02/07 10:53:29;;;;;;;10.82;3.28;;;;;;;10.45;90.07;96289.97;5052516;28;20048;-68
2024/02/07 10:55:59;;;;;;;8.48;2.65;;;;;;;10.39;89.24;96283.22;5053971;28;20056;-68
2024/02/07 10:58:29;;;;;;;8.35;3.22;;;;;;;10.11;89.47;96288.00;5050697;28;20049;-68
2024/02/07 11:00:56;;;;;;;10.35;3.10;;;;;;;10.01;90.32;96277.75;5043754;28;20538;-68
2024/02/07 11:03:22;;;;;;;6.93;2.85;;;;;;;9.93;91.70;96271.38;5031109;28;20046;-68
2024/02/07 11:05:48;;;;;;;10.70;2.97;;;;;;;9.72;91.94;96263.72;5031625;28;20106;-67
2024/02/07 11:08:14;;;;;;;14.95;3.35;;;;;;;9.43;93.55;96264.47;5036921;28;20040;-68
2024/02/07 11:10:40;;;;;;;7.32;3.40;;;;;;;9.46;94.40;96263.75;5035469;28;20563;-68
2024/02/07 11:13:09;;;;;;;67.68;9.07;;;;;;;9.64;93.66;96251.09;5036295;28;20513;-69
2024/02/07 11:15:35;;;;;;;9.43;3.30;;;;;;;9.50;94.63;96248.94;5041053;28;20479;-68
2024/02/07 11:18:01;;;;;;;5.63;2.50;;;;;;;9.49;94.52;96233.72;5033446;28;20045;-67
2024/02/07 11:20:28;;;;;;;6.20;2.83;;;;;;;9.32;95.15;96234.28;5018104;28;20098;-70
2024/02/07 11:22:56;;;;;;;6.57;3.65;;;;;;;9.11;96.30;96223.81;5030367;28;20049;-69
2024/02/07 11:25:24;;;;;;;7.15;2.80;;;;;;;9.14;97.06;96218.41;5037685;28;20049;-67
2024/02/07 11:27:51;;;;;;;8.45;3.25;;;;;;;9.11;96.97;96221.91;5028897;28;20160;-69
2024/02/07 11:30:18;;;;;;;9.32;3.05;;;;;;;9.25;96.47;96209.56;5034702;28;20048;-68
2024/02/07 11:32:47;;;;;;;6.13;3.15;;;;;;;9.09;96.24;96196.09;5041382;28;20049;-68
2024/02/07 11:35:13;;;;;;;8.27;3.30;;;;;;;9.00;97.51;96204.53;5035899;28;20045;-68
2024/02/07 11:37:39;;;;;;;8.90;3.75;;;;;;;9.10;96.27;96195.72;5041666;28;20044;-68
2024/02/07 11:40:06;;;;;;;8.40;3.25;;;;;;;9.25;95.83;96193.97;5028183;28;20047;-69
2024/02/07 11:42:37;;;;;;;8.23;3.30;;;;;;;9.14;95.69;96198.50;5040333;28;20049;-69
2024/02/07 11:45:04;;;;;;;52.35;6.10;;;;;;;9.31;95.65;96188.97;5036816;28;20581;-70
2024/02/07 11:47:33;;;;;;;8.55;3.30;;;;;;;9.27;94.36;96180.72;5041703;28;20080;-67
2024/02/07 11:50:05;;;;;;;10.98;3.38;;;;;;;9.30;93.55;96184.66;5025852;28;20049;-67
2024/02/07 11:52:35;;;;;;;15.25;3.53;;;;;;;9.35;94.64;96178.88;5016416;28;20052;-67
2024/02/07 11:55:06;;;;;;;15.98;3.70;;;;;;;9.32;94.91;96174.16;5023585;28;20049;-70
2024/02/07 11:57:32;;;;;;;9.63;3.47;;;;;;;9.21;95.63;96184.94;5031897;28;20037;-68
2024/02/07 12:00:04;;;;;;;8.95;3.72;;;;;;;9.23;93.95;96166.22;5032458;28;20045;-67
2024/02/07 12:02:30;;;;;;;9.02;3.63;;;;;;;9.28;94.98;96174.09;5040042;28;20048;-68
2024/02/07 12:04:56;;;;;;;8.75;3.38;;;;;;;9.38;94.35;96161.72;5041051;28;20052;-68
2024/02/07 12:07:22;;;;;;;12.70;4.45;;;;;;;9.26;94.79;96162.75;5018152;28;20499;-68
2024/02/07 12:09:47;;;;;;;11.57;3.85;;;;;;;9.27;95.41;96161.59;5034730;28;20041;-68
2024/02/07 12:12:13;;;;;;;14.27;3.50;;;;;;;9.32;94.77;96158.53;5026683;28;20434;-67
2024/02/07 12:14:43;;;;;;;12.18;4.45;;;;;;;9.21;95.92;96154.09;5031868;28;20045;-69
2024/02/07 12:17:09;;;;;;;11.32;4.35;;;;;;;9.25;95.86;96142.03;5032690;28;20041;-68
2024/02/07 12:19:42;;;;;;;14.23;4.28;;;;;;;9.30;95.95;96144.44;5041829;28;20044;-68
2024/02/07 12:22:07;;;;;;;22.42;5.93;;;;;;;9.32;97.11;96136.66;5024004;28;20056;-70
2024/02/07 12:24:33;;;;;;;20.60;5.55;;;;;;;9.34;96.80;96128.09;5039997;28;20437;-72
2024/02/07 12:27:13;;;;;;;7.90;2.92;;;;;;;9.47;96.56;96126.72;5041630;28;20138;-69
2024/02/07 12:29:48;;;;;;;;;;;;;;;9.45;96.11;96130.97;5010817;28;20037;-69